Flight Track Log - Related Links

Times and Time Zones

All times are in EST time to prevent confusion due to time zone crossing. See the UPS1081 flight status page for this flight to view local times or setup timezone preferences in your user account.

Time Position Orientation Groundspeed Altitude Reporting Facility
EST Latitude Longitude Course Direction KTS MPH feet Rate Location/Type
Wed 11:15:53 PM 40.7167 -74.1333 270° West 179 206 2,400  Level New York TRACON
Wed 11:16:53 PM 40.7667 -74.0667 45° Northeast 262 302 4,700 1,800 Climbing New York TRACON
Wed 11:17:53 PM 40.8167 -74.1333 315° West 273 314 6,000 2,600 Climbing New York TRACON
Wed 11:18:53 PM 40.8167 -74.2167 270° West 248 285 9,900 2,952 Climbing New York TRACON
Wed 11:19:59 PM 40.8000 -74.3167 258° West 283 326 12,200 2,375 Climbing New York TRACON
Wed 11:21:00 PM 40.6834 -74.8988 270° West  Level FlightAware Approximate
Wed 11:22:05 PM 40.7261 -74.5472 247° West 330 380 17,500  Level New York Center
Wed 11:27:50 PM 40.5331 -75.2358 251° West 351 404 30,000 2,117 Climbing FlightAware ADS-B (EGBO)
Wed 11:28:22 PM 40.5129 -75.3109 250° West 356 410 30,800 930 Climbing FlightAware ADS-B (EGBO)
Wed 11:29:59 PM 40.4597 -75.5083 251° West 357 411 32,000 533 Climbing FlightAware ADS-B (EGBO)
Wed 11:30:37 PM 40.4407 -75.5781 250° West 361 415 32,000  Level FlightAware ADS-B (EGBO)
Wed 11:31:09 PM 40.4199 -75.6544 250° West 368 423 32,000  Level FlightAware ADS-B (EGBO)
Wed 11:31:47 PM 40.3975 -75.7359 250° West 369 425 32,000  Level FlightAware ADS-B (EGBO)
Wed 11:32:17 PM 40.3803 -75.7982 250° West 366 421 32,000  Level FlightAware ADS-B (EGBO)
Wed 11:32:48 PM 40.3671 -75.8462 250° West 363 418 32,000  Level FlightAware ADS-B (EGBO)
Wed 11:33:28 PM 40.3430 -75.9337 250° West 363 418 32,000  Level FlightAware ADS-B (EGBO)
Wed 11:34:18 PM 40.3159 -76.0317 250° West 362 417 32,000  Level FlightAware ADS-B (EGBO)
Wed 11:35:18 PM 40.2825 -76.1519 250° West 362 417 32,000  Level FlightAware ADS-B (EGBO)
Wed 11:36:00 PM 40.2534 -76.2565 250° West 363 418 32,000  Level FlightAware ADS-B (EGBO)
Wed 11:36:38 PM 40.2352 -76.3216 250° West 362 417 32,000  Level FlightAware ADS-B (EGBO)
Wed 11:37:18 PM 40.2082 -76.4168 250° West 361 415 32,000  Level FlightAware ADS-B (LFML / MRS)
Wed 11:37:59 PM 40.1905 -76.4794 250° West 360 414 32,000  Level FlightAware ADS-B (EGBO)
Wed 11:38:42 PM 40.1611 -76.5838 250° West 360 414 32,000  Level FlightAware ADS-B (EGBO)
Wed 11:39:17 PM 40.1404 -76.6571 250° West 360 414 32,000  Level FlightAware ADS-B (EGBO)
Wed 11:39:48 PM 40.1302 -76.6932 250° West 360 414 32,000  Level FlightAware ADS-B (EGBO)
Wed 11:40:31 PM 40.0966 -76.8112 249° West 360 414 32,000  Level FlightAware ADS-B (LFML / MRS)
Wed 11:41:08 PM 40.0747 -76.8865 249° West 359 413 32,000  Level FlightAware ADS-B (LFML / MRS)
Wed 11:41:50 PM 40.0502 -76.9715 250° West 360 414 32,000  Level FlightAware ADS-B (LFML / MRS)
Wed 11:42:28 PM 40.0283 -77.0483 250° West 362 417 32,000  Level FlightAware ADS-B (LFML / MRS)
Wed 11:43:08 PM 40.0049 -77.1294 249° West 359 413 32,000  Level FlightAware ADS-B (LFML / MRS)
Wed 11:43:48 PM 39.9893 -77.1833 249° West 358 412 32,000  Level FlightAware ADS-B (LFML / MRS)
Wed 11:44:27 PM 39.9624 -77.2757 249° West 356 410 32,000  Level FlightAware ADS-B (LFML / MRS)
Wed 11:47:49 PM 39.8412 -77.6889 249° West 353 406 32,000  Level FlightAware ADS-B (LFML / MRS)
Wed 11:48:28 PM 39.8278 -77.7343 249° West 356 410 32,000  Level FlightAware ADS-B (LFML / MRS)
Wed 11:49:45 PM 39.7769 -77.9000 249° West 366 421 32,000  Level Washington Center
Wed 11:50:55 PM 39.7322 -78.0386 247° West 355 409 32,000  Level Cleveland Center
Wed 11:51:56 PM 39.6875 -78.1539 243° Southwest 356 410 32,000  Level Cleveland Center
Wed 11:52:56 PM 39.6431 -78.2689 243° Southwest 357 411 32,000  Level Cleveland Center
Wed 11:53:46 PM 39.6047 -78.3631 242° Southwest 361 415 32,000  Level Washington Center
Wed 11:54:46 PM 39.5603 -78.4797 244° Southwest 361 415 32,000  Level Washington Center
Wed 11:55:46 PM 39.5158 -78.5936 243° Southwest 361 415 32,000  Level Washington Center
Wed 11:56:46 PM 39.4711 -78.7100 244° Southwest 361 415 32,000  Level Washington Center
Wed 11:57:43 PM 39.4244 -78.8264 243° Southwest 361 415 32,000  Level Washington Center
Wed 11:58:44 PM 39.3794 -78.9425 243° Southwest 361 415 32,000  Level Washington Center
Wed 11:59:43 PM 39.3325 -79.0558 242° Southwest 361 415 32,000  Level Washington Center
Thu 12:00:46 AM 39.2894 -79.1744 245° Southwest 361 415 32,000  Level Washington Center
Thu 12:01:46 AM 39.2483 -79.2903 245° Southwest 361 415 32,000  Level Washington Center
Thu 12:02:43 AM 39.2011 -79.4058 242° Southwest 361 415 32,000  Level Washington Center
Thu 12:03:44 AM 39.1556 -79.5211 243° Southwest 361 415 32,000  Level Washington Center
Thu 12:04:46 AM 39.1061 -79.6361 241° Southwest 361 415 32,000  Level Washington Center
Thu 12:05:46 AM 39.0603 -79.7514 243° Southwest 366 421 32,000  Level Washington Center
Thu 12:06:44 AM 39.0081 -79.8792 242° Southwest 366 421 32,000  Level Washington Center
Thu 12:07:24 AM 38.9803 -79.9342 237° Southwest 363 418 32,000  Level Indianapolis Center
Thu 12:08:25 AM 38.9261 -80.0681 243° Southwest 362 417 32,000  Level Indianapolis Center
Thu 12:09:25 AM 38.8839 -80.1831 245° Southwest 362 417 32,000  Level Indianapolis Center
Thu 12:10:26 AM 38.8542 -80.3056 253° West 359 413 32,000  Level Indianapolis Center
Thu 12:11:27 AM 38.8231 -80.4267 252° West 359 413 32,000  Level Indianapolis Center
Thu 12:12:28 AM 38.7947 -80.5489 253° West 359 413 32,000  Level Indianapolis Center
Thu 12:13:28 AM 38.7653 -80.6714 253° West 359 413 32,000  Level Indianapolis Center
Thu 12:14:29 AM 38.7372 -80.7953 254° West 359 413 32,000  Level Indianapolis Center
Thu 12:15:30 AM 38.7064 -80.9200 252° West 361 415 32,000  Level Indianapolis Center
Thu 12:16:30 AM 38.6775 -81.0433 253° West 362 417 32,000  Level Indianapolis Center
Thu 12:17:31 AM 38.6478 -81.1678 253° West 362 417 32,000  Level Indianapolis Center
Thu 12:18:32 AM 38.6175 -81.2936 253° West 363 418 32,000  Level Indianapolis Center
Thu 12:19:32 AM 38.5867 -81.4206 253° West 364 419 32,000  Level Indianapolis Center
Thu 12:20:33 AM 38.5567 -81.5469 253° West 365 420 32,000  Level Indianapolis Center
Thu 12:21:33 AM 38.5250 -81.6722 252° West 365 420 32,000  Level Indianapolis Center
Thu 12:22:34 AM 38.4939 -81.7972 252° West 365 420 32,000  Level Indianapolis Center
Thu 12:23:35 AM 38.4622 -81.9233 252° West 367 422 32,000  Level Indianapolis Center
Thu 12:24:35 AM 38.4308 -82.0483 252° West 368 423 32,000  Level Indianapolis Center
Thu 12:25:36 AM 38.3994 -82.1742 252° West 368 423 32,000  Level Indianapolis Center
Thu 12:31:01 AM 38.2225 -82.8610 252° West 373 429 32,000  Level FlightAware ADS-B
Thu 12:31:45 AM 38.1986 -82.9525 252° West 376 433 32,000  Level FlightAware ADS-B
Thu 12:32:16 AM 38.1811 -83.0194 252° West 377 434 32,000  Level FlightAware ADS-B
Thu 12:32:47 AM 38.1664 -83.0756 252° West 377 434 32,000  Level FlightAware ADS-B
Thu 12:33:31 AM 38.1413 -83.1709 252° West 379 436 32,000  Level FlightAware ADS-B
Thu 12:34:09 AM 38.1187 -83.2564 252° West 380 437 32,000  Level FlightAware ADS-B
Thu 12:34:40 AM 38.1029 -83.3165 251° West 378 435 32,000 -243 Level FlightAware ADS-B
Thu 12:38:41 AM 37.9671 -83.8236 251° West 374 430 30,900 -603 Descending FlightAware ADS-B
Thu 12:41:08 AM 37.8858 -84.1239 251° West 378 435 28,100 -1,435 Descending FlightAware ADS-B
Thu 12:42:10 AM 37.8554 -84.2352 251° West 368 423 25,900 -2,348 Descending FlightAware ADS-B
Thu 12:42:40 AM 37.8350 -84.3095 251° West 361 415 24,500 -2,792 Descending FlightAware ADS-B (KCVG)
Thu 12:43:51 AM 37.7980 -84.4421 251° West 345 397 21,200 -2,680 Descending FlightAware ADS-B (KCVG)
Thu 12:45:10 AM 37.7562 -84.5940 251° West 333 383 17,800 -2,638 Descending FlightAware ADS-B
Thu 12:46:12 AM 37.7247 -84.7067 251° West 324 373 15,000 -2,607 Descending FlightAware ADS-B
Thu 12:47:12 AM 37.7010 -84.7921 251° West 315 362 12,500 -2,370 Descending FlightAware ADS-B
Thu 12:48:11 AM 37.6827 -84.8584 250° West 304 350 10,300 -1,250 Descending FlightAware ADS-B
Thu 12:49:12 AM 37.6917 -85.0054 312° West 298 343 10,000 -149 Descending FlightAware ADS-B
Thu 12:50:12 AM 37.7398 -85.0785 298° West 263 303 10,000 -465 Level FlightAware ADS-B
Thu 12:51:21 AM 37.7765 -85.1683 296° West 232 267 9,000 -1,154 Descending FlightAware ADS-B
Thu 12:52:22 AM 37.8051 -85.2411 297° West 224 258 7,500 -1,240 Descending FlightAware ADS-B
Thu 12:53:22 AM 37.8328 -85.3111 297° West 232 267 6,500 -1,100 Descending FlightAware ADS-B
Thu 12:54:22 AM 37.8627 -85.3835 297° West 224 258 5,300 -1,261 Descending FlightAware ADS-B
Thu 12:55:21 AM 37.8893 -85.4490 297° West 216 249 4,000 -1,008 Descending FlightAware ADS-B
Thu 12:56:21 AM 37.9164 -85.5152 308° West 205 236 3,300 -419 Descending FlightAware ADS-B
Thu 12:57:30 AM 37.9620 -85.5756 313° West 196 226 3,100 -185 Descending FlightAware ADS-B
Thu 12:58:31 AM 37.9938 -85.6229 311° West 171 197 2,900 -99 Descending FlightAware ADS-B
Thu 12:59:31 AM 38.0270 -85.6679 320° Northwest 172 198 2,900  Level FlightAware ADS-B
Thu 12:59:43 AM 38.0333 -85.6833 208° Southwest 166 191 2,900 -310 Level Louisville TRACON
Thu 01:00:29 AM 38.0669 -85.6903 346° North 159 183 2,600 -286 Descending FlightAware ADS-B
Thu 01:01:07 AM 38.0931 -85.7000 348° North 165 190 2,500 -800 Descending Indianapolis Center
Thu 01:01:29 AM 38.1053 -85.7034 345° North 124 143 1,800 -1,024 Descending FlightAware ADS-B
Thu 01:02:29 AM 38.1402 -85.7154 345° North 131 151 1,100 -700 Descending FlightAware ADS-B
Thu 01:04:00 AM 38.1667 -85.7333 208° Southwest  Level FlightAware Approximate
Thu 01:05:00 AM 38.1831 -85.7224 208° Southwest  Level FlightAware Approximate
Thu 01:11:00 AM 38.1741 -85.7365 208° Southwest  Level Estimated

Login

Don't have an account? Register now (free) for customized features, flight alerts, and more!